Pollard, Alabama
Current Conditions -  °F | °C
As of 5:53 PM on Thursday 27 Nov 2014 (Local Time) from KGZH Reporting Station
Clear Clear  
Wind Chill: 44°   Ceiling: Unl
Heat Index: 47°   Visibility: 10mi
Dew Point: 31°   Wind: 6mph
Humidity: 54%   Direction: 340°NNW
Pressure: 30.41"   Gusts: NA
Location:  31.1088°N, 87.2802°W
Report Text: KGZH 272353Z AUTO 34005KT 10SM CLR 08/M01 A3041 RMK AO2 SLP298 T00831006 10139 20083 53019
Loading
Personal Weather Stations






























Interactive Weather Map New forecast layout! Learn more

10-Day Weather Forecast

Advertisements
Track Severe Weather on mobile